sensor_id;sensor_type;location;lat;lon;timestamp;P1;durP1;ratioP1;P2;durP2;ratioP2
56122;SDS011;42426;46.104;19.656;2023-01-19T00:00:03;23.52;;;17.35;;
56122;SDS011;42426;46.104;19.656;2023-01-19T00:02:29;24.80;;;20.05;;
56122;SDS011;42426;46.104;19.656;2023-01-19T00:04:55;19.05;;;12.80;;
56122;SDS011;42426;46.104;19.656;2023-01-19T00:07:23;15.13;;;8.65;;
56122;SDS011;42426;46.104;19.656;2023-01-19T00:09:49;10.80;;;7.63;;
56122;SDS011;42426;46.104;19.656;2023-01-19T00:12:14;13.18;;;8.88;;
56122;SDS011;42426;46.104;19.656;2023-01-19T00:14:40;13.90;;;8.13;;
56122;SDS011;42426;46.104;19.656;2023-01-19T00:17:06;13.85;;;7.35;;
56122;SDS011;42426;46.104;19.656;2023-01-19T00:19:31;11.88;;;8.32;;
56122;SDS011;42426;46.104;19.656;2023-01-19T00:21:57;15.18;;;9.13;;
56122;SDS011;42426;46.104;19.656;2023-01-19T00:24:23;14.18;;;8.40;;
56122;SDS011;42426;46.104;19.656;2023-01-19T00:26:48;13.82;;;8.00;;
56122;SDS011;42426;46.104;19.656;2023-01-19T00:29:14;15.90;;;8.65;;
56122;SDS011;42426;46.104;19.656;2023-01-19T00:31:40;14.27;;;8.07;;
56122;SDS011;42426;46.104;19.656;2023-01-19T00:34:06;18.80;;;10.07;;
56122;SDS011;42426;46.104;19.656;2023-01-19T00:36:32;15.30;;;8.68;;
56122;SDS011;42426;46.104;19.656;2023-01-19T00:38:58;15.60;;;9.05;;
56122;SDS011;42426;46.104;19.656;2023-01-19T00:41:25;14.65;;;9.20;;
56122;SDS011;42426;46.104;19.656;2023-01-19T00:44:10;16.48;;;8.52;;
56122;SDS011;42426;46.104;19.656;2023-01-19T00:46:36;15.68;;;9.07;;
56122;SDS011;42426;46.104;19.656;2023-01-19T00:49:03;12.82;;;8.60;;
56122;SDS011;42426;46.104;19.656;2023-01-19T00:51:29;15.98;;;8.52;;
56122;SDS011;42426;46.104;19.656;2023-01-19T00:53:55;10.95;;;7.53;;
56122;SDS011;42426;46.104;19.656;2023-01-19T00:56:21;14.85;;;8.40;;
56122;SDS011;42426;46.104;19.656;2023-01-19T00:58:46;12.32;;;8.13;;
56122;SDS011;42426;46.104;19.656;2023-01-19T01:01:12;15.75;;;9.35;;
56122;SDS011;42426;46.104;19.656;2023-01-19T01:03:38;11.85;;;7.53;;
56122;SDS011;42426;46.104;19.656;2023-01-19T01:06:04;13.35;;;8.13;;
56122;SDS011;42426;46.104;19.656;2023-01-19T01:08:32;14.02;;;8.43;;
56122;SDS011;42426;46.104;19.656;2023-01-19T01:10:59;14.68;;;9.25;;
56122;SDS011;42426;46.104;19.656;2023-01-19T01:13:26;13.35;;;8.80;;
56122;SDS011;42426;46.104;19.656;2023-01-19T01:15:52;13.02;;;7.72;;
56122;SDS011;42426;46.104;19.656;2023-01-19T01:18:20;16.20;;;8.32;;
56122;SDS011;42426;46.104;19.656;2023-01-19T01:20:46;12.05;;;8.57;;
56122;SDS011;42426;46.104;19.656;2023-01-19T01:23:11;16.10;;;8.43;;
56122;SDS011;42426;46.104;19.656;2023-01-19T01:25:37;13.32;;;7.82;;
56122;SDS011;42426;46.104;19.656;2023-01-19T01:28:04;15.93;;;7.72;;
56122;SDS011;42426;46.104;19.656;2023-01-19T01:30:32;11.02;;;6.97;;
56122;SDS011;42426;46.104;19.656;2023-01-19T01:32:59;10.82;;;6.47;;
56122;SDS011;42426;46.104;19.656;2023-01-19T01:35:25;13.73;;;7.43;;
56122;SDS011;42426;46.104;19.656;2023-01-19T01:37:51;16.35;;;7.38;;
56122;SDS011;42426;46.104;19.656;2023-01-19T01:40:17;9.70;;;6.60;;
56122;SDS011;42426;46.104;19.656;2023-01-19T01:42:43;9.85;;;6.90;;
56122;SDS011;42426;46.104;19.656;2023-01-19T01:48:01;11.65;;;6.25;;
56122;SDS011;42426;46.104;19.656;2023-01-19T01:50:33;10.95;;;6.72;;
56122;SDS011;42426;46.104;19.656;2023-01-19T01:53:07;11.80;;;6.78;;
56122;SDS011;42426;46.104;19.656;2023-01-19T01:55:38;10.48;;;5.75;;
56122;SDS011;42426;46.104;19.656;2023-01-19T01:58:10;9.38;;;6.25;;
56122;SDS011;42426;46.104;19.656;2023-01-19T02:00:37;8.90;;;5.53;;
56122;SDS011;42426;46.104;19.656;2023-01-19T02:03:22;8.73;;;5.32;;
56122;SDS011;42426;46.104;19.656;2023-01-19T02:05:52;9.35;;;5.35;;
56122;SDS011;42426;46.104;19.656;2023-01-19T02:11:31;10.70;;;6.68;;
56122;SDS011;42426;46.104;19.656;2023-01-19T02:14:17;15.07;;;6.20;;
56122;SDS011;42426;46.104;19.656;2023-01-19T02:16:45;8.73;;;6.28;;
56122;SDS011;42426;46.104;19.656;2023-01-19T02:19:12;13.82;;;7.00;;
56122;SDS011;42426;46.104;19.656;2023-01-19T02:21:52;15.00;;;8.52;;
56122;SDS011;42426;46.104;19.656;2023-01-19T02:24:28;15.13;;;8.68;;
56122;SDS011;42426;46.104;19.656;2023-01-19T02:26:54;15.50;;;8.43;;
56122;SDS011;42426;46.104;19.656;2023-01-19T02:29:21;12.35;;;7.30;;
56122;SDS011;42426;46.104;19.656;2023-01-19T02:31:49;12.93;;;8.32;;
56122;SDS011;42426;46.104;19.656;2023-01-19T02:34:17;13.68;;;7.82;;
56122;SDS011;42426;46.104;19.656;2023-01-19T02:39:27;11.35;;;7.32;;
56122;SDS011;42426;46.104;19.656;2023-01-19T02:42:07;11.15;;;7.38;;
56122;SDS011;42426;46.104;19.656;2023-01-19T02:44:36;12.75;;;7.80;;
56122;SDS011;42426;46.104;19.656;2023-01-19T02:47:03;15.02;;;8.00;;
56122;SDS011;42426;46.104;19.656;2023-01-19T02:49:29;13.88;;;9.18;;
56122;SDS011;42426;46.104;19.656;2023-01-19T02:51:55;13.07;;;7.90;;
56122;SDS011;42426;46.104;19.656;2023-01-19T02:57:11;11.60;;;7.55;;
56122;SDS011;42426;46.104;19.656;2023-01-19T02:59:47;11.73;;;6.47;;
56122;SDS011;42426;46.104;19.656;2023-01-19T03:04:52;9.07;;;6.57;;
56122;SDS011;42426;46.104;19.656;2023-01-19T03:15:05;18.05;;;10.30;;
56122;SDS011;42426;46.104;19.656;2023-01-19T03:17:39;21.40;;;11.70;;
56122;SDS011;42426;46.104;19.656;2023-01-19T03:20:08;16.98;;;11.93;;
56122;SDS011;42426;46.104;19.656;2023-01-19T03:22:37;20.05;;;12.85;;
56122;SDS011;42426;46.104;19.656;2023-01-19T03:25:04;18.33;;;11.90;;
56122;SDS011;42426;46.104;19.656;2023-01-19T03:27:35;20.77;;;14.05;;
56122;SDS011;42426;46.104;19.656;2023-01-19T03:30:27;21.33;;;13.70;;
56122;SDS011;42426;46.104;19.656;2023-01-19T03:33:14;19.10;;;12.60;;
56122;SDS011;42426;46.104;19.656;2023-01-19T03:35:45;22.33;;;14.45;;
56122;SDS011;42426;46.104;19.656;2023-01-19T03:38:15;19.77;;;12.90;;
56122;SDS011;42426;46.104;19.656;2023-01-19T03:40:44;20.00;;;13.90;;
56122;SDS011;42426;46.104;19.656;2023-01-19T03:43:12;18.42;;;13.10;;
56122;SDS011;42426;46.104;19.656;2023-01-19T03:45:40;18.23;;;12.75;;
56122;SDS011;42426;46.104;19.656;2023-01-19T03:48:07;17.15;;;13.68;;
56122;SDS011;42426;46.104;19.656;2023-01-19T03:50:33;20.85;;;13.15;;
56122;SDS011;42426;46.104;19.656;2023-01-19T03:53:12;21.85;;;14.05;;
56122;SDS011;42426;46.104;19.656;2023-01-19T03:55:40;23.70;;;15.13;;
56122;SDS011;42426;46.104;19.656;2023-01-19T03:58:09;25.42;;;15.88;;
56122;SDS011;42426;46.104;19.656;2023-01-19T04:00:37;20.15;;;13.65;;
56122;SDS011;42426;46.104;19.656;2023-01-19T04:03:03;20.27;;;14.40;;
56122;SDS011;42426;46.104;19.656;2023-01-19T04:05:30;23.42;;;14.52;;
56122;SDS011;42426;46.104;19.656;2023-01-19T04:07:56;25.02;;;16.83;;
56122;SDS011;42426;46.104;19.656;2023-01-19T04:10:22;23.13;;;15.40;;
56122;SDS011;42426;46.104;19.656;2023-01-19T04:12:48;26.23;;;17.63;;
56122;SDS011;42426;46.104;19.656;2023-01-19T04:15:14;24.33;;;16.00;;
56122;SDS011;42426;46.104;19.656;2023-01-19T04:17:40;24.75;;;16.52;;
56122;SDS011;42426;46.104;19.656;2023-01-19T04:20:06;26.70;;;16.50;;
56122;SDS011;42426;46.104;19.656;2023-01-19T04:22:32;31.63;;;21.45;;
56122;SDS011;42426;46.104;19.656;2023-01-19T04:24:59;30.00;;;17.77;;
56122;SDS011;42426;46.104;19.656;2023-01-19T04:27:24;33.97;;;19.25;;
56122;SDS011;42426;46.104;19.656;2023-01-19T04:29:50;31.75;;;19.33;;
56122;SDS011;42426;46.104;19.656;2023-01-19T04:32:17;30.00;;;18.45;;
56122;SDS011;42426;46.104;19.656;2023-01-19T04:34:43;28.38;;;17.02;;
56122;SDS011;42426;46.104;19.656;2023-01-19T04:37:09;24.33;;;14.95;;
56122;SDS011;42426;46.104;19.656;2023-01-19T04:39:35;29.33;;;16.48;;
56122;SDS011;42426;46.104;19.656;2023-01-19T04:42:01;26.10;;;15.23;;
56122;SDS011;42426;46.104;19.656;2023-01-19T04:44:27;23.50;;;14.70;;
56122;SDS011;42426;46.104;19.656;2023-01-19T04:46:53;26.70;;;17.63;;
56122;SDS011;42426;46.104;19.656;2023-01-19T04:49:19;26.60;;;15.88;;
56122;SDS011;42426;46.104;19.656;2023-01-19T04:51:45;28.55;;;16.08;;
56122;SDS011;42426;46.104;19.656;2023-01-19T04:54:11;31.10;;;16.40;;
56122;SDS011;42426;46.104;19.656;2023-01-19T04:56:37;28.17;;;16.92;;
56122;SDS011;42426;46.104;19.656;2023-01-19T04:59:04;25.55;;;13.60;;
56122;SDS011;42426;46.104;19.656;2023-01-19T05:01:30;24.38;;;14.38;;
56122;SDS011;42426;46.104;19.656;2023-01-19T05:03:59;21.77;;;13.02;;
56122;SDS011;42426;46.104;19.656;2023-01-19T05:06:25;19.75;;;12.50;;
56122;SDS011;42426;46.104;19.656;2023-01-19T05:08:50;18.33;;;10.93;;
56122;SDS011;42426;46.104;19.656;2023-01-19T05:11:16;19.17;;;11.55;;
56122;SDS011;42426;46.104;19.656;2023-01-19T05:13:41;20.60;;;12.00;;
56122;SDS011;42426;46.104;19.656;2023-01-19T05:16:07;17.23;;;12.10;;
56122;SDS011;42426;46.104;19.656;2023-01-19T05:18:33;20.60;;;14.23;;
56122;SDS011;42426;46.104;19.656;2023-01-19T05:21:01;22.48;;;13.07;;
56122;SDS011;42426;46.104;19.656;2023-01-19T05:23:27;24.77;;;14.40;;
56122;SDS011;42426;46.104;19.656;2023-01-19T05:25:55;22.20;;;14.70;;
56122;SDS011;42426;46.104;19.656;2023-01-19T05:28:21;18.42;;;12.13;;
56122;SDS011;42426;46.104;19.656;2023-01-19T05:30:50;22.33;;;13.57;;
56122;SDS011;42426;46.104;19.656;2023-01-19T05:33:15;19.05;;;12.25;;
56122;SDS011;42426;46.104;19.656;2023-01-19T05:35:41;20.58;;;12.82;;
56122;SDS011;42426;46.104;19.656;2023-01-19T05:38:07;19.83;;;13.10;;
56122;SDS011;42426;46.104;19.656;2023-01-19T05:40:33;19.65;;;13.30;;
56122;SDS011;42426;46.104;19.656;2023-01-19T05:42:59;26.20;;;15.05;;
56122;SDS011;42426;46.104;19.656;2023-01-19T05:45:28;26.27;;;14.48;;
56122;SDS011;42426;46.104;19.656;2023-01-19T05:47:53;21.23;;;13.25;;
56122;SDS011;42426;46.104;19.656;2023-01-19T05:50:19;24.95;;;14.32;;
56122;SDS011;42426;46.104;19.656;2023-01-19T05:52:45;24.77;;;15.68;;
56122;SDS011;42426;46.104;19.656;2023-01-19T05:55:11;19.58;;;12.93;;
56122;SDS011;42426;46.104;19.656;2023-01-19T05:57:37;21.63;;;13.75;;
56122;SDS011;42426;46.104;19.656;2023-01-19T06:00:03;22.45;;;13.75;;
56122;SDS011;42426;46.104;19.656;2023-01-19T06:02:29;19.73;;;12.45;;
56122;SDS011;42426;46.104;19.656;2023-01-19T06:04:55;17.90;;;11.40;;
56122;SDS011;42426;46.104;19.656;2023-01-19T06:07:21;18.48;;;12.00;;
56122;SDS011;42426;46.104;19.656;2023-01-19T06:09:47;18.98;;;12.75;;
56122;SDS011;42426;46.104;19.656;2023-01-19T06:12:13;17.13;;;11.05;;
56122;SDS011;42426;46.104;19.656;2023-01-19T06:14:38;21.70;;;13.38;;
56122;SDS011;42426;46.104;19.656;2023-01-19T06:17:05;20.55;;;13.70;;
56122;SDS011;42426;46.104;19.656;2023-01-19T06:19:31;22.58;;;13.68;;
56122;SDS011;42426;46.104;19.656;2023-01-19T06:21:58;20.17;;;12.60;;
56122;SDS011;42426;46.104;19.656;2023-01-19T06:24:24;20.92;;;12.52;;
56122;SDS011;42426;46.104;19.656;2023-01-19T06:26:50;24.33;;;14.95;;
56122;SDS011;42426;46.104;19.656;2023-01-19T06:29:15;20.83;;;13.45;;
56122;SDS011;42426;46.104;19.656;2023-01-19T06:31:42;22.90;;;13.80;;
56122;SDS011;42426;46.104;19.656;2023-01-19T06:34:08;25.38;;;16.20;;
56122;SDS011;42426;46.104;19.656;2023-01-19T06:36:34;23.17;;;15.38;;
56122;SDS011;42426;46.104;19.656;2023-01-19T06:39:00;20.98;;;13.40;;
56122;SDS011;42426;46.104;19.656;2023-01-19T06:41:29;25.08;;;15.70;;
56122;SDS011;42426;46.104;19.656;2023-01-19T06:43:55;23.85;;;14.50;;
56122;SDS011;42426;46.104;19.656;2023-01-19T06:46:21;24.17;;;15.82;;
56122;SDS011;42426;46.104;19.656;2023-01-19T06:48:47;24.38;;;14.73;;
56122;SDS011;42426;46.104;19.656;2023-01-19T06:51:12;23.25;;;15.10;;
56122;SDS011;42426;46.104;19.656;2023-01-19T06:53:38;22.58;;;14.75;;
56122;SDS011;42426;46.104;19.656;2023-01-19T06:56:04;21.30;;;14.23;;
56122;SDS011;42426;46.104;19.656;2023-01-19T06:58:31;20.13;;;14.65;;
56122;SDS011;42426;46.104;19.656;2023-01-19T07:01:02;22.25;;;13.57;;
56122;SDS011;42426;46.104;19.656;2023-01-19T07:03:30;21.25;;;14.35;;
56122;SDS011;42426;46.104;19.656;2023-01-19T07:05:57;23.23;;;13.18;;
56122;SDS011;42426;46.104;19.656;2023-01-19T07:08:27;20.83;;;13.93;;
56122;SDS011;42426;46.104;19.656;2023-01-19T07:13:29;18.15;;;12.85;;
56122;SDS011;42426;46.104;19.656;2023-01-19T07:15:54;18.80;;;13.20;;
56122;SDS011;42426;46.104;19.656;2023-01-19T07:18:20;21.02;;;12.85;;
56122;SDS011;42426;46.104;19.656;2023-01-19T07:20:46;17.52;;;11.82;;
56122;SDS011;42426;46.104;19.656;2023-01-19T07:23:13;16.17;;;10.70;;
56122;SDS011;42426;46.104;19.656;2023-01-19T07:25:40;17.08;;;10.93;;
56122;SDS011;42426;46.104;19.656;2023-01-19T07:28:08;19.75;;;11.93;;
56122;SDS011;42426;46.104;19.656;2023-01-19T07:30:35;17.35;;;12.32;;
56122;SDS011;42426;46.104;19.656;2023-01-19T07:33:00;23.30;;;13.65;;
56122;SDS011;42426;46.104;19.656;2023-01-19T07:35:27;20.40;;;13.15;;
56122;SDS011;42426;46.104;19.656;2023-01-19T07:37:53;25.45;;;16.52;;
56122;SDS011;42426;46.104;19.656;2023-01-19T07:40:19;32.83;;;18.20;;
56122;SDS011;42426;46.104;19.656;2023-01-19T07:42:49;27.08;;;16.90;;
56122;SDS011;42426;46.104;19.656;2023-01-19T07:45:16;32.95;;;17.05;;
56122;SDS011;42426;46.104;19.656;2023-01-19T07:47:44;27.63;;;16.80;;
56122;SDS011;42426;46.104;19.656;2023-01-19T07:50:13;25.33;;;16.50;;
56122;SDS011;42426;46.104;19.656;2023-01-19T07:52:39;24.92;;;16.83;;
56122;SDS011;42426;46.104;19.656;2023-01-19T07:55:06;23.02;;;14.68;;
56122;SDS011;42426;46.104;19.656;2023-01-19T07:57:34;19.15;;;12.88;;
56122;SDS011;42426;46.104;19.656;2023-01-19T08:00:00;14.98;;;9.98;;
56122;SDS011;42426;46.104;19.656;2023-01-19T08:02:27;18.63;;;11.25;;
56122;SDS011;42426;46.104;19.656;2023-01-19T08:04:54;21.15;;;11.70;;
56122;SDS011;42426;46.104;19.656;2023-01-19T08:07:19;18.60;;;11.27;;
56122;SDS011;42426;46.104;19.656;2023-01-19T08:09:45;16.17;;;11.07;;
56122;SDS011;42426;46.104;19.656;2023-01-19T08:12:12;13.85;;;10.10;;
56122;SDS011;42426;46.104;19.656;2023-01-19T08:14:37;13.90;;;9.85;;
56122;SDS011;42426;46.104;19.656;2023-01-19T08:17:03;14.95;;;9.85;;
56122;SDS011;42426;46.104;19.656;2023-01-19T08:19:29;11.77;;;8.90;;
56122;SDS011;42426;46.104;19.656;2023-01-19T08:21:55;9.85;;;7.70;;
56122;SDS011;42426;46.104;19.656;2023-01-19T08:24:23;11.45;;;7.35;;
56122;SDS011;42426;46.104;19.656;2023-01-19T08:27:01;10.95;;;8.30;;
56122;SDS011;42426;46.104;19.656;2023-01-19T08:29:27;12.20;;;10.00;;
56122;SDS011;42426;46.104;19.656;2023-01-19T08:31:58;14.43;;;10.18;;
56122;SDS011;42426;46.104;19.656;2023-01-19T08:34:26;12.55;;;10.30;;
56122;SDS011;42426;46.104;19.656;2023-01-19T08:36:51;12.90;;;10.40;;
56122;SDS011;42426;46.104;19.656;2023-01-19T08:39:17;12.73;;;9.35;;
56122;SDS011;42426;46.104;19.656;2023-01-19T08:41:45;17.70;;;11.00;;
56122;SDS011;42426;46.104;19.656;2023-01-19T08:44:11;10.10;;;7.82;;
56122;SDS011;42426;46.104;19.656;2023-01-19T08:46:36;12.00;;;7.70;;
56122;SDS011;42426;46.104;19.656;2023-01-19T08:49:02;13.98;;;9.48;;
56122;SDS011;42426;46.104;19.656;2023-01-19T08:51:28;10.93;;;8.27;;
56122;SDS011;42426;46.104;19.656;2023-01-19T08:53:53;9.30;;;6.22;;
56122;SDS011;42426;46.104;19.656;2023-01-19T08:56:19;9.38;;;7.25;;
56122;SDS011;42426;46.104;19.656;2023-01-19T08:58:45;13.07;;;8.90;;
56122;SDS011;42426;46.104;19.656;2023-01-19T09:01:11;13.57;;;8.20;;
56122;SDS011;42426;46.104;19.656;2023-01-19T09:03:46;13.48;;;7.82;;
56122;SDS011;42426;46.104;19.656;2023-01-19T09:06:13;13.18;;;8.02;;
56122;SDS011;42426;46.104;19.656;2023-01-19T09:08:43;11.25;;;7.18;;
56122;SDS011;42426;46.104;19.656;2023-01-19T09:11:10;8.40;;;7.03;;
56122;SDS011;42426;46.104;19.656;2023-01-19T09:13:37;13.40;;;8.27;;
56122;SDS011;42426;46.104;19.656;2023-01-19T09:16:03;10.75;;;7.40;;
56122;SDS011;42426;46.104;19.656;2023-01-19T09:18:31;10.45;;;7.18;;
56122;SDS011;42426;46.104;19.656;2023-01-19T09:20:58;13.50;;;6.82;;
56122;SDS011;42426;46.104;19.656;2023-01-19T09:23:24;10.63;;;7.22;;
56122;SDS011;42426;46.104;19.656;2023-01-19T09:25:55;13.20;;;8.20;;
56122;SDS011;42426;46.104;19.656;2023-01-19T09:28:22;15.55;;;11.38;;
56122;SDS011;42426;46.104;19.656;2023-01-19T09:30:47;18.40;;;12.18;;
56122;SDS011;42426;46.104;19.656;2023-01-19T09:33:14;13.30;;;10.13;;
56122;SDS011;42426;46.104;19.656;2023-01-19T09:35:41;15.57;;;10.90;;
56122;SDS011;42426;46.104;19.656;2023-01-19T09:38:10;13.40;;;8.90;;
56122;SDS011;42426;46.104;19.656;2023-01-19T09:40:57;16.75;;;11.20;;
56122;SDS011;42426;46.104;19.656;2023-01-19T09:51:16;12.10;;;9.77;;
56122;SDS011;42426;46.104;19.656;2023-01-19T09:54:02;12.38;;;8.32;;
56122;SDS011;42426;46.104;19.656;2023-01-19T09:56:34;13.60;;;9.80;;
56122;SDS011;42426;46.104;19.656;2023-01-19T09:59:00;15.90;;;11.15;;
56122;SDS011;42426;46.104;19.656;2023-01-19T10:07:07;14.70;;;11.23;;
56122;SDS011;42426;46.104;19.656;2023-01-19T10:20:36;10.63;;;7.90;;
56122;SDS011;42426;46.104;19.656;2023-01-19T10:25:58;26.52;;;15.05;;
56122;SDS011;42426;46.104;19.656;2023-01-19T10:28:28;8.57;;;5.95;;
56122;SDS011;42426;46.104;19.656;2023-01-19T10:34:16;14.65;;;10.00;;
56122;SDS011;42426;46.104;19.656;2023-01-19T10:45:55;27.13;;;14.13;;
56122;SDS011;42426;46.104;19.656;2023-01-19T10:48:21;18.08;;;11.68;;
56122;SDS011;42426;46.104;19.656;2023-01-19T10:50:48;23.77;;;12.13;;
56122;SDS011;42426;46.104;19.656;2023-01-19T10:53:26;14.85;;;10.23;;
56122;SDS011;42426;46.104;19.656;2023-01-19T10:56:12;13.32;;;9.02;;
56122;SDS011;42426;46.104;19.656;2023-01-19T10:58:38;16.23;;;9.73;;
56122;SDS011;42426;46.104;19.656;2023-01-19T11:01:12;16.17;;;10.15;;
56122;SDS011;42426;46.104;19.656;2023-01-19T11:03:47;15.40;;;11.15;;
56122;SDS011;42426;46.104;19.656;2023-01-19T11:08:40;18.33;;;11.13;;
56122;SDS011;42426;46.104;19.656;2023-01-19T11:11:07;18.85;;;12.57;;
56122;SDS011;42426;46.104;19.656;2023-01-19T11:13:35;16.98;;;10.32;;
56122;SDS011;42426;46.104;19.656;2023-01-19T11:16:17;18.10;;;11.25;;
56122;SDS011;42426;46.104;19.656;2023-01-19T11:18:53;16.73;;;10.73;;
56122;SDS011;42426;46.104;19.656;2023-01-19T11:21:21;14.07;;;8.82;;
56122;SDS011;42426;46.104;19.656;2023-01-19T11:23:50;13.00;;;8.57;;
56122;SDS011;42426;46.104;19.656;2023-01-19T11:29:44;18.65;;;9.93;;
56122;SDS011;42426;46.104;19.656;2023-01-19T11:36:33;10.23;;;6.70;;
56122;SDS011;42426;46.104;19.656;2023-01-19T11:39:28;17.02;;;10.70;;
56122;SDS011;42426;46.104;19.656;2023-01-19T11:42:10;12.02;;;8.50;;
56122;SDS011;42426;46.104;19.656;2023-01-19T11:50:01;12.63;;;8.88;;
56122;SDS011;42426;46.104;19.656;2023-01-19T11:52:41;16.70;;;10.25;;
56122;SDS011;42426;46.104;19.656;2023-01-19T12:01:42;14.43;;;8.07;;
56122;SDS011;42426;46.104;19.656;2023-01-19T12:07:54;13.85;;;9.15;;
56122;SDS011;42426;46.104;19.656;2023-01-19T12:13:43;16.00;;;10.35;;
56122;SDS011;42426;46.104;19.656;2023-01-19T12:31:30;17.15;;;12.00;;
56122;SDS011;42426;46.104;19.656;2023-01-19T12:37:30;24.77;;;15.90;;
56122;SDS011;42426;46.104;19.656;2023-01-19T12:50:41;19.45;;;12.77;;
56122;SDS011;42426;46.104;19.656;2023-01-19T13:00:34;23.95;;;13.98;;
56122;SDS011;42426;46.104;19.656;2023-01-19T13:17:27;20.05;;;13.32;;
56122;SDS011;42426;46.104;19.656;2023-01-19T13:29:12;26.02;;;15.77;;
56122;SDS011;42426;46.104;19.656;2023-01-19T13:35:04;146.38;;;81.53;;
56122;SDS011;42426;46.104;19.656;2023-01-19T13:41:20;77.20;;;44.10;;
56122;SDS011;42426;46.104;19.656;2023-01-19T13:47:12;62.08;;;42.33;;
56122;SDS011;42426;46.104;19.656;2023-01-19T13:53:38;59.95;;;37.03;;
56122;SDS011;42426;46.104;19.656;2023-01-19T14:03:24;33.53;;;20.30;;
56122;SDS011;42426;46.104;19.656;2023-01-19T14:05:50;40.70;;;22.20;;
56122;SDS011;42426;46.104;19.656;2023-01-19T14:08:17;32.90;;;22.05;;
56122;SDS011;42426;46.104;19.656;2023-01-19T14:10:45;28.50;;;17.98;;
56122;SDS011;42426;46.104;19.656;2023-01-19T14:13:30;49.97;;;29.85;;
56122;SDS011;42426;46.104;19.656;2023-01-19T14:16:04;44.55;;;27.55;;
56122;SDS011;42426;46.104;19.656;2023-01-19T14:18:33;29.83;;;18.75;;
56122;SDS011;42426;46.104;19.656;2023-01-19T14:21:00;28.92;;;19.83;;
56122;SDS011;42426;46.104;19.656;2023-01-19T14:32:05;56.03;;;32.55;;
56122;SDS011;42426;46.104;19.656;2023-01-19T14:37:22;39.15;;;23.92;;
56122;SDS011;42426;46.104;19.656;2023-01-19T14:39:59;35.88;;;21.92;;
56122;SDS011;42426;46.104;19.656;2023-01-19T14:45:18;107.05;;;54.15;;
56122;SDS011;42426;46.104;19.656;2023-01-19T14:50:39;132.48;;;67.50;;
56122;SDS011;42426;46.104;19.656;2023-01-19T14:53:16;116.32;;;61.55;;
56122;SDS011;42426;46.104;19.656;2023-01-19T14:55:55;135.10;;;69.60;;
56122;SDS011;42426;46.104;19.656;2023-01-19T14:58:26;139.35;;;70.18;;
56122;SDS011;42426;46.104;19.656;2023-01-19T15:00:55;99.57;;;50.80;;
56122;SDS011;42426;46.104;19.656;2023-01-19T15:03:21;120.25;;;56.92;;
56122;SDS011;42426;46.104;19.656;2023-01-19T15:05:47;110.43;;;55.50;;
56122;SDS011;42426;46.104;19.656;2023-01-19T15:08:23;106.80;;;56.53;;
56122;SDS011;42426;46.104;19.656;2023-01-19T15:11:08;39.40;;;24.42;;
56122;SDS011;42426;46.104;19.656;2023-01-19T15:13:37;67.17;;;34.80;;
56122;SDS011;42426;46.104;19.656;2023-01-19T15:16:03;62.75;;;33.88;;
56122;SDS011;42426;46.104;19.656;2023-01-19T15:18:30;47.03;;;26.27;;
56122;SDS011;42426;46.104;19.656;2023-01-19T15:20:56;74.15;;;39.08;;
56122;SDS011;42426;46.104;19.656;2023-01-19T15:23:27;112.50;;;53.75;;
56122;SDS011;42426;46.104;19.656;2023-01-19T15:26:00;182.05;;;87.80;;
56122;SDS011;42426;46.104;19.656;2023-01-19T15:28:28;119.47;;;56.30;;
56122;SDS011;42426;46.104;19.656;2023-01-19T15:30:54;228.27;;;98.45;;
56122;SDS011;42426;46.104;19.656;2023-01-19T15:33:25;85.07;;;38.83;;
56122;SDS011;42426;46.104;19.656;2023-01-19T15:35:56;118.85;;;54.25;;
56122;SDS011;42426;46.104;19.656;2023-01-19T15:38:21;104.97;;;53.05;;
56122;SDS011;42426;46.104;19.656;2023-01-19T15:40:48;52.38;;;26.52;;
56122;SDS011;42426;46.104;19.656;2023-01-19T15:43:13;65.68;;;34.58;;
56122;SDS011;42426;46.104;19.656;2023-01-19T15:45:49;85.55;;;43.05;;
56122;SDS011;42426;46.104;19.656;2023-01-19T15:48:22;73.10;;;37.75;;
56122;SDS011;42426;46.104;19.656;2023-01-19T15:50:48;39.08;;;22.73;;
56122;SDS011;42426;46.104;19.656;2023-01-19T15:53:15;40.45;;;25.10;;
56122;SDS011;42426;46.104;19.656;2023-01-19T15:55:47;44.03;;;26.25;;
56122;SDS011;42426;46.104;19.656;2023-01-19T15:58:13;35.92;;;20.52;;
56122;SDS011;42426;46.104;19.656;2023-01-19T16:00:40;38.65;;;24.15;;
56122;SDS011;42426;46.104;19.656;2023-01-19T16:03:05;34.42;;;22.05;;
56122;SDS011;42426;46.104;19.656;2023-01-19T16:05:31;36.15;;;21.08;;
56122;SDS011;42426;46.104;19.656;2023-01-19T16:07:57;32.28;;;19.73;;
56122;SDS011;42426;46.104;19.656;2023-01-19T16:10:23;36.10;;;23.20;;
56122;SDS011;42426;46.104;19.656;2023-01-19T16:12:49;23.27;;;16.25;;
56122;SDS011;42426;46.104;19.656;2023-01-19T16:15:15;26.23;;;16.92;;
56122;SDS011;42426;46.104;19.656;2023-01-19T16:17:42;32.03;;;20.17;;
56122;SDS011;42426;46.104;19.656;2023-01-19T16:20:09;33.88;;;21.35;;
56122;SDS011;42426;46.104;19.656;2023-01-19T16:22:36;37.70;;;22.08;;
56122;SDS011;42426;46.104;19.656;2023-01-19T16:25:03;33.30;;;19.67;;
56122;SDS011;42426;46.104;19.656;2023-01-19T16:27:29;39.30;;;20.88;;
56122;SDS011;42426;46.104;19.656;2023-01-19T16:29:56;42.22;;;25.33;;
56122;SDS011;42426;46.104;19.656;2023-01-19T16:32:28;36.27;;;22.77;;
56122;SDS011;42426;46.104;19.656;2023-01-19T16:34:56;35.40;;;19.10;;
56122;SDS011;42426;46.104;19.656;2023-01-19T16:37:21;29.65;;;19.60;;
56122;SDS011;42426;46.104;19.656;2023-01-19T16:39:48;47.67;;;23.58;;
56122;SDS011;42426;46.104;19.656;2023-01-19T16:42:14;33.67;;;20.80;;
56122;SDS011;42426;46.104;19.656;2023-01-19T16:44:41;32.03;;;20.27;;
56122;SDS011;42426;46.104;19.656;2023-01-19T16:47:07;39.47;;;23.58;;
56122;SDS011;42426;46.104;19.656;2023-01-19T16:49:32;42.67;;;26.05;;
56122;SDS011;42426;46.104;19.656;2023-01-19T16:51:58;45.92;;;28.33;;
56122;SDS011;42426;46.104;19.656;2023-01-19T16:54:25;53.63;;;30.25;;
56122;SDS011;42426;46.104;19.656;2023-01-19T16:56:52;48.63;;;29.83;;
56122;SDS011;42426;46.104;19.656;2023-01-19T16:59:19;47.55;;;27.20;;
56122;SDS011;42426;46.104;19.656;2023-01-19T17:01:46;48.60;;;28.60;;
56122;SDS011;42426;46.104;19.656;2023-01-19T17:04:14;44.83;;;26.35;;
56122;SDS011;42426;46.104;19.656;2023-01-19T17:06:42;45.17;;;24.83;;
56122;SDS011;42426;46.104;19.656;2023-01-19T17:09:10;32.85;;;20.13;;
56122;SDS011;42426;46.104;19.656;2023-01-19T17:11:37;35.50;;;21.42;;
56122;SDS011;42426;46.104;19.656;2023-01-19T17:14:05;32.17;;;20.20;;
56122;SDS011;42426;46.104;19.656;2023-01-19T17:16:33;36.40;;;20.52;;
56122;SDS011;42426;46.104;19.656;2023-01-19T17:19:00;27.95;;;18.50;;
56122;SDS011;42426;46.104;19.656;2023-01-19T17:21:27;34.88;;;20.67;;
56122;SDS011;42426;46.104;19.656;2023-01-19T17:23:54;33.03;;;20.05;;
56122;SDS011;42426;46.104;19.656;2023-01-19T17:26:21;37.50;;;22.25;;
56122;SDS011;42426;46.104;19.656;2023-01-19T17:28:49;49.05;;;26.60;;
56122;SDS011;42426;46.104;19.656;2023-01-19T17:31:16;40.70;;;23.85;;